sensor_id;sensor_type;location;lat;lon;timestamp;P1;durP1;ratioP1;P2;durP2;ratioP2
25938;SDS011;13739;51.172;4.466;2022-12-07T00:00:43;11.57;;;6.22;;
25938;SDS011;13739;51.172;4.466;2022-12-07T00:03:08;11.38;;;5.80;;
25938;SDS011;13739;51.172;4.466;2022-12-07T00:05:34;12.40;;;5.40;;
25938;SDS011;13739;51.172;4.466;2022-12-07T00:07:59;12.48;;;6.20;;
25938;SDS011;13739;51.172;4.466;2022-12-07T00:10:25;12.02;;;5.82;;
25938;SDS011;13739;51.172;4.466;2022-12-07T00:12:51;10.27;;;5.45;;
25938;SDS011;13739;51.172;4.466;2022-12-07T00:15:16;8.55;;;4.57;;
25938;SDS011;13739;51.172;4.466;2022-12-07T00:17:42;10.10;;;5.40;;
25938;SDS011;13739;51.172;4.466;2022-12-07T00:20:08;11.32;;;5.25;;
25938;SDS011;13739;51.172;4.466;2022-12-07T00:22:34;9.10;;;5.43;;
25938;SDS011;13739;51.172;4.466;2022-12-07T00:24:59;12.23;;;5.93;;
25938;SDS011;13739;51.172;4.466;2022-12-07T00:27:26;10.02;;;4.80;;
25938;SDS011;13739;51.172;4.466;2022-12-07T00:29:52;11.77;;;5.63;;
25938;SDS011;13739;51.172;4.466;2022-12-07T00:32:18;14.05;;;5.30;;
25938;SDS011;13739;51.172;4.466;2022-12-07T00:34:44;15.00;;;6.07;;
25938;SDS011;13739;51.172;4.466;2022-12-07T00:37:09;9.15;;;5.30;;
25938;SDS011;13739;51.172;4.466;2022-12-07T00:39:37;14.07;;;5.75;;
25938;SDS011;13739;51.172;4.466;2022-12-07T00:42:03;12.75;;;5.97;;
25938;SDS011;13739;51.172;4.466;2022-12-07T00:44:28;10.65;;;5.63;;
25938;SDS011;13739;51.172;4.466;2022-12-07T00:47:12;13.65;;;6.20;;
25938;SDS011;13739;51.172;4.466;2022-12-07T00:49:38;11.63;;;5.85;;
25938;SDS011;13739;51.172;4.466;2022-12-07T00:52:04;10.90;;;5.95;;
25938;SDS011;13739;51.172;4.466;2022-12-07T00:54:29;12.70;;;6.18;;
25938;SDS011;13739;51.172;4.466;2022-12-07T00:56:55;11.23;;;6.10;;
25938;SDS011;13739;51.172;4.466;2022-12-07T00:59:21;11.77;;;5.38;;
25938;SDS011;13739;51.172;4.466;2022-12-07T01:01:46;12.02;;;6.10;;
25938;SDS011;13739;51.172;4.466;2022-12-07T01:04:12;13.32;;;6.25;;
25938;SDS011;13739;51.172;4.466;2022-12-07T01:06:38;13.95;;;6.40;;
25938;SDS011;13739;51.172;4.466;2022-12-07T01:09:03;13.65;;;5.80;;
25938;SDS011;13739;51.172;4.466;2022-12-07T01:11:31;15.27;;;5.80;;
25938;SDS011;13739;51.172;4.466;2022-12-07T01:13:57;10.15;;;5.55;;
25938;SDS011;13739;51.172;4.466;2022-12-07T01:16:26;12.23;;;5.68;;
25938;SDS011;13739;51.172;4.466;2022-12-07T01:18:54;10.43;;;5.20;;
25938;SDS011;13739;51.172;4.466;2022-12-07T01:21:25;12.27;;;6.15;;
25938;SDS011;13739;51.172;4.466;2022-12-07T01:23:54;11.75;;;5.68;;
25938;SDS011;13739;51.172;4.466;2022-12-07T01:26:23;14.70;;;6.60;;
25938;SDS011;13739;51.172;4.466;2022-12-07T01:28:49;10.98;;;5.82;;
25938;SDS011;13739;51.172;4.466;2022-12-07T01:31:17;11.70;;;5.65;;
25938;SDS011;13739;51.172;4.466;2022-12-07T01:33:45;10.18;;;5.57;;
25938;SDS011;13739;51.172;4.466;2022-12-07T01:36:19;9.95;;;5.22;;
25938;SDS011;13739;51.172;4.466;2022-12-07T01:38:47;10.27;;;5.82;;
25938;SDS011;13739;51.172;4.466;2022-12-07T01:41:16;12.05;;;5.45;;
25938;SDS011;13739;51.172;4.466;2022-12-07T01:46:26;9.75;;;5.70;;
25938;SDS011;13739;51.172;4.466;2022-12-07T01:48:54;10.07;;;5.82;;
25938;SDS011;13739;51.172;4.466;2022-12-07T01:51:20;12.95;;;5.75;;
25938;SDS011;13739;51.172;4.466;2022-12-07T01:53:45;9.80;;;6.00;;
25938;SDS011;13739;51.172;4.466;2022-12-07T01:56:21;10.43;;;5.95;;
25938;SDS011;13739;51.172;4.466;2022-12-07T01:58:50;9.63;;;5.75;;
25938;SDS011;13739;51.172;4.466;2022-12-07T02:01:20;10.82;;;4.80;;
25938;SDS011;13739;51.172;4.466;2022-12-07T02:03:47;9.73;;;5.68;;
25938;SDS011;13739;51.172;4.466;2022-12-07T02:31:04;11.75;;;6.53;;
25938;SDS011;13739;51.172;4.466;2022-12-07T02:33:40;14.27;;;5.75;;
25938;SDS011;13739;51.172;4.466;2022-12-07T02:36:27;13.73;;;5.65;;
25938;SDS011;13739;51.172;4.466;2022-12-07T02:39:00;22.50;;;5.68;;
25938;SDS011;13739;51.172;4.466;2022-12-07T02:41:33;13.73;;;5.60;;
25938;SDS011;13739;51.172;4.466;2022-12-07T02:44:06;10.27;;;5.28;;
25938;SDS011;13739;51.172;4.466;2022-12-07T02:46:40;11.25;;;5.75;;
25938;SDS011;13739;51.172;4.466;2022-12-07T02:49:08;12.63;;;5.63;;
25938;SDS011;13739;51.172;4.466;2022-12-07T02:51:38;12.95;;;6.07;;
25938;SDS011;13739;51.172;4.466;2022-12-07T02:54:12;10.88;;;5.72;;
25938;SDS011;13739;51.172;4.466;2022-12-07T02:56:47;10.75;;;5.40;;
25938;SDS011;13739;51.172;4.466;2022-12-07T02:59:32;12.82;;;5.60;;
25938;SDS011;13739;51.172;4.466;2022-12-07T03:14:17;13.95;;;5.07;;
25938;SDS011;13739;51.172;4.466;2022-12-07T03:16:33;11.15;;;4.90;;
25938;SDS011;13739;51.172;4.466;2022-12-07T03:19:02;10.88;;;4.85;;
25938;SDS011;13739;51.172;4.466;2022-12-07T03:21:33;10.60;;;4.88;;
25938;SDS011;13739;51.172;4.466;2022-12-07T03:24:16;11.73;;;5.03;;
25938;SDS011;13739;51.172;4.466;2022-12-07T03:26:46;12.25;;;4.70;;
25938;SDS011;13739;51.172;4.466;2022-12-07T03:29:50;11.60;;;4.88;;
25938;SDS011;13739;51.172;4.466;2022-12-07T03:32:24;9.25;;;4.55;;
25938;SDS011;13739;51.172;4.466;2022-12-07T03:35:05;7.90;;;4.15;;
25938;SDS011;13739;51.172;4.466;2022-12-07T03:38:13;8.82;;;4.28;;
25938;SDS011;13739;51.172;4.466;2022-12-07T03:40:49;7.05;;;3.75;;
25938;SDS011;13739;51.172;4.466;2022-12-07T03:43:37;7.32;;;3.88;;
25938;SDS011;13739;51.172;4.466;2022-12-07T03:54:27;7.82;;;3.90;;
25938;SDS011;13739;51.172;4.466;2022-12-07T03:56:57;9.60;;;3.20;;
25938;SDS011;13739;51.172;4.466;2022-12-07T03:59:24;14.43;;;4.40;;
25938;SDS011;13739;51.172;4.466;2022-12-07T04:01:52;9.75;;;4.05;;
25938;SDS011;13739;51.172;4.466;2022-12-07T04:04:26;9.25;;;3.47;;
25938;SDS011;13739;51.172;4.466;2022-12-07T04:06:52;12.50;;;3.65;;
25938;SDS011;13739;51.172;4.466;2022-12-07T04:09:18;10.32;;;3.55;;
25938;SDS011;13739;51.172;4.466;2022-12-07T04:11:44;13.18;;;3.65;;
25938;SDS011;13739;51.172;4.466;2022-12-07T04:14:09;7.03;;;3.28;;
25938;SDS011;13739;51.172;4.466;2022-12-07T04:16:51;7.90;;;3.00;;
25938;SDS011;13739;51.172;4.466;2022-12-07T04:19:22;9.95;;;3.40;;
25938;SDS011;13739;51.172;4.466;2022-12-07T04:21:49;6.88;;;3.90;;
25938;SDS011;13739;51.172;4.466;2022-12-07T04:24:15;7.53;;;3.47;;
25938;SDS011;13739;51.172;4.466;2022-12-07T04:26:42;8.88;;;3.70;;
25938;SDS011;13739;51.172;4.466;2022-12-07T04:29:09;7.80;;;3.40;;
25938;SDS011;13739;51.172;4.466;2022-12-07T04:31:35;11.82;;;4.22;;
25938;SDS011;13739;51.172;4.466;2022-12-07T04:34:02;8.10;;;3.22;;
25938;SDS011;13739;51.172;4.466;2022-12-07T04:36:28;10.40;;;3.40;;
25938;SDS011;13739;51.172;4.466;2022-12-07T04:38:55;10.57;;;3.45;;
25938;SDS011;13739;51.172;4.466;2022-12-07T04:41:21;5.15;;;3.25;;
25938;SDS011;13739;51.172;4.466;2022-12-07T04:43:55;6.70;;;3.10;;
25938;SDS011;13739;51.172;4.466;2022-12-07T04:46:22;7.05;;;3.20;;
25938;SDS011;13739;51.172;4.466;2022-12-07T04:48:49;8.05;;;3.15;;
25938;SDS011;13739;51.172;4.466;2022-12-07T04:51:19;10.35;;;3.22;;
25938;SDS011;13739;51.172;4.466;2022-12-07T04:53:50;6.37;;;2.87;;
25938;SDS011;13739;51.172;4.466;2022-12-07T04:56:16;7.90;;;3.10;;
25938;SDS011;13739;51.172;4.466;2022-12-07T04:58:43;7.00;;;2.85;;
25938;SDS011;13739;51.172;4.466;2022-12-07T05:01:10;5.50;;;2.90;;
25938;SDS011;13739;51.172;4.466;2022-12-07T05:03:36;5.93;;;2.65;;
25938;SDS011;13739;51.172;4.466;2022-12-07T05:06:03;15.45;;;2.80;;
25938;SDS011;13739;51.172;4.466;2022-12-07T05:08:29;8.45;;;3.03;;
25938;SDS011;13739;51.172;4.466;2022-12-07T05:10:55;8.60;;;2.92;;
25938;SDS011;13739;51.172;4.466;2022-12-07T05:13:21;12.13;;;3.17;;
25938;SDS011;13739;51.172;4.466;2022-12-07T05:15:47;6.65;;;3.30;;
25938;SDS011;13739;51.172;4.466;2022-12-07T05:18:13;6.28;;;3.05;;
25938;SDS011;13739;51.172;4.466;2022-12-07T05:20:39;8.73;;;3.72;;
25938;SDS011;13739;51.172;4.466;2022-12-07T05:23:05;8.48;;;3.25;;
25938;SDS011;13739;51.172;4.466;2022-12-07T05:25:31;7.50;;;3.70;;
25938;SDS011;13739;51.172;4.466;2022-12-07T05:27:57;14.18;;;3.50;;
25938;SDS011;13739;51.172;4.466;2022-12-07T05:30:23;8.68;;;3.42;;
25938;SDS011;13739;51.172;4.466;2022-12-07T05:32:49;8.07;;;3.58;;
25938;SDS011;13739;51.172;4.466;2022-12-07T05:35:16;8.50;;;3.33;;
25938;SDS011;13739;51.172;4.466;2022-12-07T05:37:42;9.05;;;2.88;;
25938;SDS011;13739;51.172;4.466;2022-12-07T05:40:08;6.00;;;3.10;;
25938;SDS011;13739;51.172;4.466;2022-12-07T05:42:34;11.70;;;3.72;;
25938;SDS011;13739;51.172;4.466;2022-12-07T05:45:00;9.52;;;3.58;;
25938;SDS011;13739;51.172;4.466;2022-12-07T05:47:25;8.90;;;3.35;;
25938;SDS011;13739;51.172;4.466;2022-12-07T05:49:51;6.82;;;3.28;;
25938;SDS011;13739;51.172;4.466;2022-12-07T05:52:17;10.90;;;3.33;;
25938;SDS011;13739;51.172;4.466;2022-12-07T05:54:42;8.00;;;3.53;;
25938;SDS011;13739;51.172;4.466;2022-12-07T05:57:08;6.80;;;3.13;;
25938;SDS011;13739;51.172;4.466;2022-12-07T05:59:34;10.57;;;4.28;;
25938;SDS011;13739;51.172;4.466;2022-12-07T06:02:00;9.88;;;3.92;;
25938;SDS011;13739;51.172;4.466;2022-12-07T06:04:29;9.23;;;3.13;;
25938;SDS011;13739;51.172;4.466;2022-12-07T06:06:57;7.05;;;3.65;;
25938;SDS011;13739;51.172;4.466;2022-12-07T06:09:24;8.52;;;4.15;;
25938;SDS011;13739;51.172;4.466;2022-12-07T06:11:51;8.68;;;3.83;;
25938;SDS011;13739;51.172;4.466;2022-12-07T06:14:36;9.35;;;3.95;;
25938;SDS011;13739;51.172;4.466;2022-12-07T06:17:02;12.82;;;3.88;;
25938;SDS011;13739;51.172;4.466;2022-12-07T06:19:27;9.70;;;3.97;;
25938;SDS011;13739;51.172;4.466;2022-12-07T06:21:53;10.18;;;4.30;;
25938;SDS011;13739;51.172;4.466;2022-12-07T06:24:19;8.88;;;4.00;;
25938;SDS011;13739;51.172;4.466;2022-12-07T06:26:45;10.00;;;3.47;;
25938;SDS011;13739;51.172;4.466;2022-12-07T06:29:11;11.65;;;3.50;;
25938;SDS011;13739;51.172;4.466;2022-12-07T06:31:37;11.10;;;3.38;;
25938;SDS011;13739;51.172;4.466;2022-12-07T06:34:04;12.40;;;3.88;;
25938;SDS011;13739;51.172;4.466;2022-12-07T06:36:31;9.40;;;3.92;;
25938;SDS011;13739;51.172;4.466;2022-12-07T06:38:58;13.30;;;3.25;;
25938;SDS011;13739;51.172;4.466;2022-12-07T06:41:24;11.73;;;3.45;;
25938;SDS011;13739;51.172;4.466;2022-12-07T06:43:50;9.57;;;2.70;;
25938;SDS011;13739;51.172;4.466;2022-12-07T06:46:16;12.65;;;3.42;;
25938;SDS011;13739;51.172;4.466;2022-12-07T06:48:42;7.70;;;3.13;;
25938;SDS011;13739;51.172;4.466;2022-12-07T06:51:08;15.52;;;4.00;;
25938;SDS011;13739;51.172;4.466;2022-12-07T06:53:34;9.70;;;3.55;;
25938;SDS011;13739;51.172;4.466;2022-12-07T06:56:01;11.35;;;4.28;;
25938;SDS011;13739;51.172;4.466;2022-12-07T06:58:26;13.00;;;4.53;;
25938;SDS011;13739;51.172;4.466;2022-12-07T07:00:52;11.90;;;4.32;;
25938;SDS011;13739;51.172;4.466;2022-12-07T07:03:19;6.20;;;3.20;;
25938;SDS011;13739;51.172;4.466;2022-12-07T07:05:45;11.43;;;4.05;;
25938;SDS011;13739;51.172;4.466;2022-12-07T07:08:11;7.85;;;4.18;;
25938;SDS011;13739;51.172;4.466;2022-12-07T07:10:37;11.23;;;4.40;;
25938;SDS011;13739;51.172;4.466;2022-12-07T07:13:02;14.20;;;3.53;;
25938;SDS011;13739;51.172;4.466;2022-12-07T07:15:28;11.05;;;4.20;;
25938;SDS011;13739;51.172;4.466;2022-12-07T07:17:54;8.13;;;4.00;;
25938;SDS011;13739;51.172;4.466;2022-12-07T07:20:20;9.35;;;4.13;;
25938;SDS011;13739;51.172;4.466;2022-12-07T07:22:46;11.52;;;3.90;;
25938;SDS011;13739;51.172;4.466;2022-12-07T07:25:11;8.98;;;4.65;;
25938;SDS011;13739;51.172;4.466;2022-12-07T07:27:37;12.73;;;5.25;;
25938;SDS011;13739;51.172;4.466;2022-12-07T07:30:03;10.68;;;5.35;;
25938;SDS011;13739;51.172;4.466;2022-12-07T07:32:29;10.88;;;4.80;;
25938;SDS011;13739;51.172;4.466;2022-12-07T07:34:55;15.57;;;5.72;;
25938;SDS011;13739;51.172;4.466;2022-12-07T07:37:20;20.35;;;5.60;;
25938;SDS011;13739;51.172;4.466;2022-12-07T07:39:46;15.50;;;6.50;;
25938;SDS011;13739;51.172;4.466;2022-12-07T07:42:11;15.77;;;6.63;;
25938;SDS011;13739;51.172;4.466;2022-12-07T07:44:37;18.27;;;5.82;;
25938;SDS011;13739;51.172;4.466;2022-12-07T07:47:03;19.20;;;6.70;;
25938;SDS011;13739;51.172;4.466;2022-12-07T07:49:29;16.23;;;6.65;;
25938;SDS011;13739;51.172;4.466;2022-12-07T07:51:54;13.80;;;6.20;;
25938;SDS011;13739;51.172;4.466;2022-12-07T07:54:20;13.25;;;6.10;;
25938;SDS011;13739;51.172;4.466;2022-12-07T07:56:45;22.30;;;6.78;;
25938;SDS011;13739;51.172;4.466;2022-12-07T07:59:11;16.27;;;7.43;;
25938;SDS011;13739;51.172;4.466;2022-12-07T08:01:37;15.77;;;7.03;;
25938;SDS011;13739;51.172;4.466;2022-12-07T08:04:02;20.92;;;7.90;;
25938;SDS011;13739;51.172;4.466;2022-12-07T08:06:28;15.82;;;7.63;;
25938;SDS011;13739;51.172;4.466;2022-12-07T08:08:53;16.27;;;6.85;;
25938;SDS011;13739;51.172;4.466;2022-12-07T08:11:19;17.92;;;7.18;;
25938;SDS011;13739;51.172;4.466;2022-12-07T08:13:45;19.70;;;8.45;;
25938;SDS011;13739;51.172;4.466;2022-12-07T08:16:12;14.95;;;7.43;;
25938;SDS011;13739;51.172;4.466;2022-12-07T08:18:38;17.63;;;8.90;;
25938;SDS011;13739;51.172;4.466;2022-12-07T08:21:12;16.58;;;7.95;;
25938;SDS011;13739;51.172;4.466;2022-12-07T08:23:41;11.45;;;7.22;;
25938;SDS011;13739;51.172;4.466;2022-12-07T08:26:11;11.27;;;6.80;;
25938;SDS011;13739;51.172;4.466;2022-12-07T08:28:39;20.20;;;7.50;;
25938;SDS011;13739;51.172;4.466;2022-12-07T08:31:07;16.83;;;6.95;;
25938;SDS011;13739;51.172;4.466;2022-12-07T08:33:36;15.35;;;7.25;;
25938;SDS011;13739;51.172;4.466;2022-12-07T08:36:10;15.30;;;6.47;;
25938;SDS011;13739;51.172;4.466;2022-12-07T08:38:37;17.50;;;6.20;;
25938;SDS011;13739;51.172;4.466;2022-12-07T08:41:07;16.63;;;6.18;;
25938;SDS011;13739;51.172;4.466;2022-12-07T08:43:34;14.45;;;6.00;;
25938;SDS011;13739;51.172;4.466;2022-12-07T08:46:04;18.70;;;5.82;;
25938;SDS011;13739;51.172;4.466;2022-12-07T08:48:36;10.23;;;5.18;;
25938;SDS011;13739;51.172;4.466;2022-12-07T08:51:07;19.60;;;5.43;;
25938;SDS011;13739;51.172;4.466;2022-12-07T08:53:33;12.98;;;4.65;;
25938;SDS011;13739;51.172;4.466;2022-12-07T08:56:02;10.93;;;4.65;;
25938;SDS011;13739;51.172;4.466;2022-12-07T08:58:29;10.35;;;4.93;;
25938;SDS011;13739;51.172;4.466;2022-12-07T09:00:55;12.98;;;4.95;;
25938;SDS011;13739;51.172;4.466;2022-12-07T09:03:24;16.25;;;5.00;;
25938;SDS011;13739;51.172;4.466;2022-12-07T09:05:50;13.48;;;4.97;;
25938;SDS011;13739;51.172;4.466;2022-12-07T09:08:18;14.43;;;5.50;;
25938;SDS011;13739;51.172;4.466;2022-12-07T09:10:44;16.95;;;5.75;;
25938;SDS011;13739;51.172;4.466;2022-12-07T09:13:11;10.35;;;5.50;;
25938;SDS011;13739;51.172;4.466;2022-12-07T09:15:37;17.00;;;5.05;;
25938;SDS011;13739;51.172;4.466;2022-12-07T09:18:03;12.15;;;4.78;;
25938;SDS011;13739;51.172;4.466;2022-12-07T09:20:29;17.10;;;5.28;;
25938;SDS011;13739;51.172;4.466;2022-12-07T09:22:58;14.15;;;5.47;;
25938;SDS011;13739;51.172;4.466;2022-12-07T09:25:28;14.48;;;5.50;;
25938;SDS011;13739;51.172;4.466;2022-12-07T09:27:57;19.85;;;4.93;;
25938;SDS011;13739;51.172;4.466;2022-12-07T09:30:25;12.93;;;5.05;;
25938;SDS011;13739;51.172;4.466;2022-12-07T09:32:55;13.68;;;4.43;;
25938;SDS011;13739;51.172;4.466;2022-12-07T09:35:22;11.93;;;3.95;;
25938;SDS011;13739;51.172;4.466;2022-12-07T09:37:49;13.48;;;4.85;;
25938;SDS011;13739;51.172;4.466;2022-12-07T09:40:15;12.25;;;4.53;;
25938;SDS011;13739;51.172;4.466;2022-12-07T09:42:44;17.52;;;6.38;;
25938;SDS011;13739;51.172;4.466;2022-12-07T09:45:24;13.52;;;4.95;;
25938;SDS011;13739;51.172;4.466;2022-12-07T09:47:54;15.40;;;4.75;;
25938;SDS011;13739;51.172;4.466;2022-12-07T09:50:24;18.70;;;4.78;;
25938;SDS011;13739;51.172;4.466;2022-12-07T09:53:04;10.70;;;4.95;;
25938;SDS011;13739;51.172;4.466;2022-12-07T09:55:38;15.52;;;5.30;;
25938;SDS011;13739;51.172;4.466;2022-12-07T09:58:08;12.50;;;4.53;;
25938;SDS011;13739;51.172;4.466;2022-12-07T10:00:44;16.73;;;4.38;;
25938;SDS011;13739;51.172;4.466;2022-12-07T10:03:10;11.98;;;4.18;;
25938;SDS011;13739;51.172;4.466;2022-12-07T10:05:40;16.77;;;4.65;;
25938;SDS011;13739;51.172;4.466;2022-12-07T10:08:12;10.85;;;4.40;;
25938;SDS011;13739;51.172;4.466;2022-12-07T10:10:40;9.35;;;3.78;;
25938;SDS011;13739;51.172;4.466;2022-12-07T10:13:07;10.40;;;4.07;;
25938;SDS011;13739;51.172;4.466;2022-12-07T10:15:49;9.63;;;4.40;;
25938;SDS011;13739;51.172;4.466;2022-12-07T10:18:25;16.48;;;4.90;;
25938;SDS011;13739;51.172;4.466;2022-12-07T10:21:02;10.45;;;4.70;;
25938;SDS011;13739;51.172;4.466;2022-12-07T10:24:03;14.23;;;4.63;;
25938;SDS011;13739;51.172;4.466;2022-12-07T10:29:04;12.30;;;5.35;;
25938;SDS011;13739;51.172;4.466;2022-12-07T10:31:59;14.75;;;4.95;;
25938;SDS011;13739;51.172;4.466;2022-12-07T10:34:44;12.13;;;5.10;;
25938;SDS011;13739;51.172;4.466;2022-12-07T10:39:43;9.10;;;4.28;;
25938;SDS011;13739;51.172;4.466;2022-12-07T10:42:25;16.50;;;4.15;;
25938;SDS011;13739;51.172;4.466;2022-12-07T10:45:09;11.05;;;4.03;;
25938;SDS011;13739;51.172;4.466;2022-12-07T10:51:32;11.40;;;3.60;;
25938;SDS011;13739;51.172;4.466;2022-12-07T10:53:48;8.63;;;3.40;;
25938;SDS011;13739;51.172;4.466;2022-12-07T11:04:38;8.73;;;3.20;;
25938;SDS011;13739;51.172;4.466;2022-12-07T11:07:22;7.50;;;3.58;;
25938;SDS011;13739;51.172;4.466;2022-12-07T11:12:52;10.82;;;3.50;;
25938;SDS011;13739;51.172;4.466;2022-12-07T11:18:22;8.25;;;2.83;;
25938;SDS011;13739;51.172;4.466;2022-12-07T11:21:07;7.32;;;2.90;;
25938;SDS011;13739;51.172;4.466;2022-12-07T11:24:05;8.93;;;3.30;;
25938;SDS011;13739;51.172;4.466;2022-12-07T11:26:58;7.70;;;3.08;;
25938;SDS011;13739;51.172;4.466;2022-12-07T11:35:24;15.52;;;5.05;;
25938;SDS011;13739;51.172;4.466;2022-12-07T11:38:17;10.63;;;3.90;;
25938;SDS011;13739;51.172;4.466;2022-12-07T11:40:48;9.48;;;3.17;;
25938;SDS011;13739;51.172;4.466;2022-12-07T11:43:24;7.78;;;3.85;;
25938;SDS011;13739;51.172;4.466;2022-12-07T11:46:03;9.95;;;3.95;;
25938;SDS011;13739;51.172;4.466;2022-12-07T11:48:35;9.65;;;3.70;;
25938;SDS011;13739;51.172;4.466;2022-12-07T11:51:06;11.85;;;3.70;;
25938;SDS011;13739;51.172;4.466;2022-12-07T11:53:44;9.15;;;3.45;;
25938;SDS011;13739;51.172;4.466;2022-12-07T11:56:20;10.50;;;3.28;;
25938;SDS011;13739;51.172;4.466;2022-12-07T12:04:15;4.60;;;2.10;;
25938;SDS011;13739;51.172;4.466;2022-12-07T12:07:02;5.10;;;2.50;;
25938;SDS011;13739;51.172;4.466;2022-12-07T12:09:46;4.38;;;2.22;;
25938;SDS011;13739;51.172;4.466;2022-12-07T12:20:26;7.10;;;2.00;;
25938;SDS011;13739;51.172;4.466;2022-12-07T12:23:12;4.88;;;1.60;;
25938;SDS011;13739;51.172;4.466;2022-12-07T12:25:59;6.53;;;1.77;;
25938;SDS011;13739;51.172;4.466;2022-12-07T12:28:32;4.15;;;1.48;;
25938;SDS011;13739;51.172;4.466;2022-12-07T12:33:50;3.45;;;1.27;;
25938;SDS011;13739;51.172;4.466;2022-12-07T12:39:14;4.47;;;1.77;;
25938;SDS011;13739;51.172;4.466;2022-12-07T12:46:54;4.97;;;1.85;;
25938;SDS011;13739;51.172;4.466;2022-12-07T12:51:55;5.15;;;1.40;;
25938;SDS011;13739;51.172;4.466;2022-12-07T12:54:24;6.35;;;1.73;;
25938;SDS011;13739;51.172;4.466;2022-12-07T13:02:28;8.45;;;2.10;;
25938;SDS011;13739;51.172;4.466;2022-12-07T13:04:58;8.45;;;2.33;;
25938;SDS011;13739;51.172;4.466;2022-12-07T13:15:31;9.60;;;2.03;;
25938;SDS011;13739;51.172;4.466;2022-12-07T13:18:04;7.38;;;2.10;;
25938;SDS011;13739;51.172;4.466;2022-12-07T13:20:40;7.40;;;1.77;;
25938;SDS011;13739;51.172;4.466;2022-12-07T13:23:18;6.55;;;1.80;;
25938;SDS011;13739;51.172;4.466;2022-12-07T13:31:47;8.48;;;2.20;;
25938;SDS011;13739;51.172;4.466;2022-12-07T13:39:52;6.05;;;3.45;;
25938;SDS011;13739;51.172;4.466;2022-12-07T13:42:28;7.47;;;3.40;;
25938;SDS011;13739;51.172;4.466;2022-12-07T13:44:58;6.53;;;3.50;;
25938;SDS011;13739;51.172;4.466;2022-12-07T13:47:43;7.32;;;3.63;;
25938;SDS011;13739;51.172;4.466;2022-12-07T13:50:27;5.03;;;3.20;;
25938;SDS011;13739;51.172;4.466;2022-12-07T13:52:54;9.70;;;3.63;;
25938;SDS011;13739;51.172;4.466;2022-12-07T13:55:21;6.15;;;2.53;;
25938;SDS011;13739;51.172;4.466;2022-12-07T13:57:49;4.88;;;2.08;;
25938;SDS011;13739;51.172;4.466;2022-12-07T14:00:19;4.75;;;2.30;;
25938;SDS011;13739;51.172;4.466;2022-12-07T14:03:00;6.57;;;2.00;;
25938;SDS011;13739;51.172;4.466;2022-12-07T14:05:28;4.35;;;1.50;;
25938;SDS011;13739;51.172;4.466;2022-12-07T14:07:57;4.82;;;1.35;;
25938;SDS011;13739;51.172;4.466;2022-12-07T14:10:29;2.42;;;1.30;;
25938;SDS011;13739;51.172;4.466;2022-12-07T14:12:59;2.92;;;1.00;;
25938;SDS011;13739;51.172;4.466;2022-12-07T14:15:30;4.28;;;1.20;;
25938;SDS011;13739;51.172;4.466;2022-12-07T14:17:58;2.28;;;1.10;;
25938;SDS011;13739;51.172;4.466;2022-12-07T14:23:05;3.33;;;1.33;;
25938;SDS011;13739;51.172;4.466;2022-12-07T14:25:49;2.83;;;1.20;;
25938;SDS011;13739;51.172;4.466;2022-12-07T14:28:29;3.33;;;1.38;;
25938;SDS011;13739;51.172;4.466;2022-12-07T14:30:59;8.40;;;1.35;;
25938;SDS011;13739;51.172;4.466;2022-12-07T14:33:26;2.67;;;1.10;;
25938;SDS011;13739;51.172;4.466;2022-12-07T14:35:52;3.53;;;0.90;;
25938;SDS011;13739;51.172;4.466;2022-12-07T14:38:22;2.25;;;0.90;;
25938;SDS011;13739;51.172;4.466;2022-12-07T14:40:49;6.22;;;1.58;;
25938;SDS011;13739;51.172;4.466;2022-12-07T14:43:19;1.92;;;1.05;;
25938;SDS011;13739;51.172;4.466;2022-12-07T14:45:45;6.80;;;1.40;;
25938;SDS011;13739;51.172;4.466;2022-12-07T14:48:12;2.65;;;1.17;;
25938;SDS011;13739;51.172;4.466;2022-12-07T14:50:40;4.40;;;1.40;;
25938;SDS011;13739;51.172;4.466;2022-12-07T14:53:10;5.15;;;1.77;;
25938;SDS011;13739;51.172;4.466;2022-12-07T14:55:38;2.60;;;1.38;;
25938;SDS011;13739;51.172;4.466;2022-12-07T14:58:04;7.25;;;1.48;;
25938;SDS011;13739;51.172;4.466;2022-12-07T15:00:30;6.38;;;1.58;;
25938;SDS011;13739;51.172;4.466;2022-12-07T15:02:56;2.65;;;1.30;;
25938;SDS011;13739;51.172;4.466;2022-12-07T15:05:22;5.80;;;1.65;;
25938;SDS011;13739;51.172;4.466;2022-12-07T15:07:48;3.50;;;1.63;;
25938;SDS011;13739;51.172;4.466;2022-12-07T15:10:19;3.15;;;1.45;;
25938;SDS011;13739;51.172;4.466;2022-12-07T15:12:49;5.43;;;1.48;;
25938;SDS011;13739;51.172;4.466;2022-12-07T15:15:15;4.15;;;1.30;;
25938;SDS011;13739;51.172;4.466;2022-12-07T15:17:42;6.80;;;1.63;;
25938;SDS011;13739;51.172;4.466;2022-12-07T15:20:09;5.50;;;1.58;;
25938;SDS011;13739;51.172;4.466;2022-12-07T15:22:41;5.78;;;1.48;;
25938;SDS011;13739;51.172;4.466;2022-12-07T15:25:08;8.10;;;2.08;;
25938;SDS011;13739;51.172;4.466;2022-12-07T15:27:33;2.72;;;1.60;;
25938;SDS011;13739;51.172;4.466;2022-12-07T15:29:59;3.45;;;1.50;;
25938;SDS011;13739;51.172;4.466;2022-12-07T15:32:25;7.03;;;2.20;;
25938;SDS011;13739;51.172;4.466;2022-12-07T15:34:50;4.63;;;2.30;;
25938;SDS011;13739;51.172;4.466;2022-12-07T15:37:16;5.82;;;2.33;;
25938;SDS011;13739;51.172;4.466;2022-12-07T15:39:42;11.77;;;2.30;;
25938;SDS011;13739;51.172;4.466;2022-12-07T15:42:07;7.63;;;2.42;;
25938;SDS011;13739;51.172;4.466;2022-12-07T15:44:33;6.25;;;2.35;;
25938;SDS011;13739;51.172;4.466;2022-12-07T15:47:17;10.18;;;2.20;;
25938;SDS011;13739;51.172;4.466;2022-12-07T15:49:43;9.18;;;2.42;;
25938;SDS011;13739;51.172;4.466;2022-12-07T15:52:08;7.38;;;2.45;;
25938;SDS011;13739;51.172;4.466;2022-12-07T15:54:34;10.77;;;2.10;;
25938;SDS011;13739;51.172;4.466;2022-12-07T15:57:00;7.40;;;2.22;;
25938;SDS011;13739;51.172;4.466;2022-12-07T15:59:26;7.30;;;2.47;;
25938;SDS011;13739;51.172;4.466;2022-12-07T16:01:53;6.20;;;2.00;;
25938;SDS011;13739;51.172;4.466;2022-12-07T16:04:19;5.35;;;2.10;;
25938;SDS011;13739;51.172;4.466;2022-12-07T16:06:45;7.10;;;1.90;;
25938;SDS011;13739;51.172;4.466;2022-12-07T16:09:11;4.82;;;2.30;;
25938;SDS011;13739;51.172;4.466;2022-12-07T16:11:37;5.30;;;2.17;;
25938;SDS011;13739;51.172;4.466;2022-12-07T16:14:03;5.80;;;1.85;;
25938;SDS011;13739;51.172;4.466;2022-12-07T16:16:28;9.82;;;2.47;;
25938;SDS011;13739;51.172;4.466;2022-12-07T16:18:55;5.95;;;2.13;;
25938;SDS011;13739;51.172;4.466;2022-12-07T16:21:21;4.30;;;2.03;;
25938;SDS011;13739;51.172;4.466;2022-12-07T16:23:46;7.68;;;2.30;;
25938;SDS011;13739;51.172;4.466;2022-12-07T16:26:14;7.60;;;2.20;;
25938;SDS011;13739;51.172;4.466;2022-12-07T16:28:41;8.82;;;2.45;;
25938;SDS011;13739;51.172;4.466;2022-12-07T16:31:09;14.18;;;2.13;;
25938;SDS011;13739;51.172;4.466;2022-12-07T16:33:37;5.72;;;1.70;;
25938;SDS011;13739;51.172;4.466;2022-12-07T16:36:04;6.88;;;2.30;;
25938;SDS011;13739;51.172;4.466;2022-12-07T16:38:31;10.82;;;2.30;;
25938;SDS011;13739;51.172;4.466;2022-12-07T16:40:57;7.38;;;2.28;;
25938;SDS011;13739;51.172;4.466;2022-12-07T16:43:22;5.28;;;2.10;;
25938;SDS011;13739;51.172;4.466;2022-12-07T16:45:48;8.68;;;1.92;;
25938;SDS011;13739;51.172;4.466;2022-12-07T16:48:15;6.30;;;2.20;;
25938;SDS011;13739;51.172;4.466;2022-12-07T16:50:41;4.05;;;1.80;;
25938;SDS011;13739;51.172;4.466;2022-12-07T16:53:11;5.18;;;1.73;;
25938;SDS011;13739;51.172;4.466;2022-12-07T16:55:38;5.65;;;2.30;;
25938;SDS011;13739;51.172;4.466;2022-12-07T16:58:05;4.47;;;2.00;;
25938;SDS011;13739;51.172;4.466;2022-12-07T17:00:31;3.53;;;2.13;;
25938;SDS011;13739;51.172;4.466;2022-12-07T17:02:57;3.63;;;1.83;;
25938;SDS011;13739;51.172;4.466;2022-12-07T17:05:22;3.55;;;1.88;;